Select METAR Reports

 

KLWC - Lawrence, Kansas USA
Distance from station: S 12mi, 20km
Updated: 10/16/2019 5:45am CDT
NOT Current
Mostly cloudy
Mostly cloudy
 Wind from NW
Wind: NW 5 mph , 7 km/h
Temperature: 36°F , 2°C
Wind Chill: 32°F , 0°C
Dew Point: 30°F , -1°C
Humidity: 81%
Barometer: 30.20 inHg , 1022.7 hPa
Clouds: Mostly cloudy
Visibility: 10 miles , 16 km
Cloud details: Mostly cloudy 2900 ft
2019/10/16 10:45 KLWC 161045Z 32004KT 10SM BKN029 02/M01 A3020
KTOP - Topeka/Billard, Kansas USA
Distance from station: WSW 23mi, 37km
Updated: 10/16/2019 6:53am CDT
Overcast
Overcast
 Wind from NW
Wind: NW 7 mph , 11 km/h
Temperature: 43°F , 6°C
Wind Chill: 39°F , 4°C
Dew Point: 36°F , 2°C
Humidity: 76%
Barometer: 30.21 inHg , 1023 hPa
Clouds: Overcast
Visibility: 10 miles , 16 km
Cloud details: Overcast 2300 ft
2019/10/16 11:53 KTOP 161153Z 31006KT 10SM OVC023 06/02 A3021 RMK AO2 SLP229 T00610022 10072 20033 50005
 
KMCI - Kansas City Intl, Missouri USA
Distance from station: ENE 28mi, 45km
Updated: 10/16/2019 6:53am CDT
Overcast
Overcast
 Wind from N
Wind: N 8 mph , 13 km/h
Temperature: 45°F , 7°C
Wind Chill: 41°F , 5°C
Dew Point: 37°F , 3°C
Humidity: 76%
Barometer: 30.18 inHg , 1022 hPa
Clouds: Overcast
Visibility: 10 miles , 16 km
Cloud details: Overcast 2300 ft
2019/10/16 11:53 KMCI 161153Z 35007KT 10SM OVC023 07/03 A3018 RMK AO2 SLP219 T00670028 10067 20033 51007
KFOE - Topeka/Forbes, Kansas USA
Distance from station: SW 29mi, 46km
Updated: 10/16/2019 6:53am CDT
Overcast
Overcast
 Wind from NNW
Wind: NNW 10 mph , 17 km/h
Temperature: 43°F , 6°C
Wind Chill: 37°F , 3°C
Dew Point: 36°F , 2°C
Humidity: 76%
Barometer: 30.20 inHg , 1022.7 hPa
Clouds: Overcast
Visibility: 10 miles , 16 km
Cloud details: Overcast 2100 ft
2019/10/16 11:53 KFOE 161153Z 33009KT 10SM OVC021 06/02 A3020 RMK AO2 SLP226 T00560022 10061 20017 50004
 
KIXD - Olathe/Industrial, Kansas USA
Distance from station: SE 32mi, 52km
Updated: 10/16/2019 6:53am CDT
Mostly cloudy
Mostly cloudy
 Wind from NNW
Wind: NNW 6 mph , 9 km/h
Temperature: 37°F , 3°C
Wind Chill: 32°F , 0°C
Dew Point: 34°F , 1°C
Humidity: 87%
Barometer: 30.18 inHg , 1022 hPa
Clouds: Mostly cloudy
Visibility: 10 miles , 16 km
Cloud details: Mostly cloudy 2400 ft
2019/10/16 11:53 KIXD 161153Z 33005KT 10SM BKN024 03/01 A3018 RMK AO2 SLP223 T00330011 10061 20028 52004
KMKC - Kansas City/Dntn, Missouri USA
Distance from station: E 35mi, 56km
Updated: 10/16/2019 6:54am CDT
Overcast
Overcast
 Wind from WNW
Wind: WNW 3 mph , 6 km/h
Temperature: 45°F , 7°C
Dew Point: 37°F , 3°C
Humidity: 76%
Barometer: 30.18 inHg , 1022 hPa
Clouds: Overcast
Visibility: 10 miles , 16 km
Cloud details: Overcast 2700 ft
2019/10/16 11:54 KMKC 161154Z 30003KT 10SM OVC027 07/03 A3018 RMK AO2 SLP221 T00670028 10078 20050 51006
 
KMHK - Manhattan, Kansas USA
Distance from station: W 75mi, 120km
Updated: 10/16/2019 6:52am CDT
Overcast
Overcast
 Wind from W
Wind: W 5 mph , 7 km/h
Temperature: 39°F , 4°C
Wind Chill: 35°F , 2°C
Dew Point: 36°F , 2°C
Humidity: 87%
Barometer: 30.24 inHg , 1024 hPa
Clouds: Overcast
Visibility: 10 miles , 16 km
Cloud details: Overcast 2200 ft
2019/10/16 11:52 KMHK 161152Z AUTO 28004KT 10SM OVC022 04/02 A3024 RMK AO2 SLP242 T00440017 10050 20028 53003
KFRI - Ft Riley/Marshal, Kansas, USA
Distance from station: W 83mi, 133km
Updated: 10/16/2019 6:56am CDT
Mostly cloudy
Mostly cloudy
 Wind from NNW
Wind: NNW 6 mph , 9 km/h
Temperature: 41°F , 5°C
Wind Chill: 37°F , 3°C
Dew Point: 34°F , 1°C
Humidity: 76%
Barometer: 30.24 inHg , 1024 hPa
Clouds: Mostly cloudy
Visibility: 10 miles , 16 km
Cloud details: Mostly cloudy 2300 ft
2019/10/16 11:56 KFRI 161156Z 33005KT 10SM BKN023 05/01 A3024 RMK AO2A SLP241 T00530012 10071 20039 50004
 
KOMA - Omaha, Nebraska USA
Distance from station: N 148mi, 239km
Updated: 10/16/2019 6:52am CDT
Overcast
Overcast
 Wind from NW
Wind: NW 12 mph , 19 km/h
Temperature: 43°F , 6°C
Wind Chill: 37°F , 3°C
Dew Point: 36°F , 2°C
Humidity: 76%
Barometer: 30.21 inHg , 1023 hPa
Clouds: Overcast
Visibility: 10 miles , 16 km
Cloud details: Overcast 2300 ft
2019/10/16 11:52 KOMA 161152Z 32010KT 10SM OVC023 06/02 A3021 RMK AO2 SLP233 T00610022 10072 20061 51006 $
KICT - Wichita, Kansas USA
Distance from station: SW 176mi, 283km
Updated: 10/16/2019 6:53am CDT
Clear
Clear
 Wind from N
Wind: N 10 mph , 17 km/h
Temperature: 41°F , 5°C
Wind Chill: 35°F , 2°C
Dew Point: 32°F , 0°C
Humidity: 70%
Barometer: 30.22 inHg , 1023.4 hPa
Clouds: Clear
Visibility: 10 miles , 16 km
2019/10/16 11:53 KICT 161153Z 35009KT 10SM CLR 05/00 A3022 RMK AO2 SLP234 T00500000 10094 20039 58004 $
 
KDSM - Des Moines, Iowa USA
Distance from station: NNE 186mi, 300km
Updated: 10/16/2019 6:54am CDT
Overcast
Overcast
 Wind from NNW
Wind: NNW 10 mph , 17 km/h
Temperature: 43°F , 6°C
Wind Chill: 37°F , 3°C
Dew Point: 36°F , 2°C
Humidity: 76%
Barometer: 30.13 inHg , 1020.3 hPa
Clouds: Overcast
Visibility: 10 miles , 16 km
Cloud details: Overcast 3000 ft
2019/10/16 11:54 KDSM 161154Z 33009KT 10SM OVC030 06/02 A3013 RMK AO2 SLP208 T00610017 10072 20061 50008
KGLD - Goodland, Kansas USA
Distance from station: W 380mi, 611km
Updated: 10/16/2019 6:53am CDT
Clear
Clear
 Wind from S
Wind: S 14 mph , 22 km/h
Temperature: 36°F , 2°C
Wind Chill: 27°F , -3°C
Dew Point: 25°F , -4°C
Humidity: 65%
Barometer: 30.19 inHg , 1022.4 hPa
Clouds: Clear
Visibility: 10 miles , 16 km
2019/10/16 11:53 KGLD 161153Z AUTO 19012KT 10SM CLR 02/M04 A3019 RMK AO2 SLP219 T00221044 10028 21022 58020
 
KOKC - Oklahoma City, Oklahoma USA
Distance from station: SSW 288mi, 463km
Updated: 10/16/2019 6:52am CDT
Clear
Clear
 Wind from N
Wind: N 12 mph , 19 km/h
Temperature: 45°F , 7°C
Wind Chill: 39°F , 4°C
Dew Point: 34°F , 1°C
Humidity: 66%
Barometer: 30.21 inHg , 1023 hPa
Clouds: Clear
Visibility: 10 miles , 16 km
2019/10/16 11:52 KOKC 161152Z 36010KT 10SM CLR 07/01 A3021 RMK AO2 SLP226 T00720011 10128 20072 51003
KSTL - St Loius, Missouri USA
Distance from station: E 288mi, 463km
Updated: 10/16/2019 6:51am CDT
Few Clouds
Few Clouds
 Wind from NW
Wind: NW 13 mph , 20 km/h
Temperature: 45°F , 7°C
Wind Chill: 39°F , 4°C
Dew Point: 36°F , 2°C
Humidity: 71%
Barometer: 30.05 inHg , 1017.6 hPa
Clouds: Few Clouds
Visibility: 10 miles , 16 km
Cloud details: Few Clouds 2500 ft
2019/10/16 11:51 KSTL 161151Z 31011KT 10SM FEW025 07/02 A3005 RMK AO2 SLP174 T00670022 10100 20061 53008
 
KDFW - Dallas/Ft Worth, Texas USA
Distance from station: SSW 452mi, 728km
Updated: 10/16/2019 6:53am CDT
Mostly cloudy
Mostly cloudy
 Wind from NNE
Wind: NNE 14 mph , 22 km/h, Gust: 24 mph , 39 km/h
Temperature: 55°F , 13°C
Dew Point: 36°F , 2°C
Humidity: 47%
Barometer: 30.13 inHg , 1020.3 hPa
Clouds: Mostly cloudy
Visibility: 10 miles , 16 km
Cloud details: Partly cloudy 25000 ft
Mostly cloudy 30000 ft
2019/10/16 11:53 KDFW 161153Z 02012G21KT 10SM SCT250 BKN300 13/02 A3013 RMK AO2 SLP195 T01330022 10194 20133 51025
PHNL - Honolulu, HI USA
Distance from station: WSW 3856mi, 6206km
Updated: 10/16/2019 6:53am CDT
Partly cloudy
Partly cloudy
 Wind from NNE
Wind: NNE 3 mph , 6 km/h
Temperature: 81°F , 27°C
Heat Index: 83°F , 28°C
Dew Point: 66°F , 19°C
Humidity: 62%
Barometer: 30.00 inHg , 1015.9 hPa
Clouds: Partly cloudy
Visibility: 10 miles , 16 km
Cloud details: Few Clouds 2500 ft
Few Clouds 3800 ft
Partly cloudy 19000 ft
2019/10/16 11:53 PHNL 161153Z 02003KT 10SM FEW025 FEW038 SCT190 27/19 A3000 RMK AO2 SLP157 T02670194 10272 20261 58013